createdAt,value
2023-10-17T00:01:35.676Z,100924.38
2023-10-17T00:04:25.542Z,100926.61
2023-10-17T00:06:55.957Z,100928.30
2023-10-17T00:09:25.889Z,100925.73
2023-10-17T00:11:55.909Z,100927.15
2023-10-17T00:14:51.651Z,100924.34
2023-10-17T00:17:19.505Z,100923.69
2023-10-17T00:19:50.711Z,100921.82
2023-10-17T00:22:25.263Z,100924.20
2023-10-17T00:24:55.682Z,100922.32
2023-10-17T00:27:24.307Z,100922.98
2023-10-17T00:29:52.232Z,100923.44
2023-10-17T00:32:19.901Z,100923.02
2023-10-17T00:34:47.824Z,100918.33
2023-10-17T00:37:15.577Z,100923.48
2023-10-17T00:39:43.299Z,100924.55
2023-10-17T00:42:11.286Z,100921.30
2023-10-17T00:44:39.916Z,100922.09
2023-10-17T00:47:20.187Z,100925.20
2023-10-17T00:49:50.743Z,100925.02
2023-10-17T00:52:33.977Z,100925.89
2023-10-17T00:55:02.353Z,100927.38
2023-10-17T00:57:31.133Z,100929.55
2023-10-17T01:00:12.613Z,100927.46
2023-10-17T01:02:46.514Z,100928.88
2023-10-17T01:05:14.541Z,100927.98
2023-10-17T01:07:42.243Z,100927.44
2023-10-17T01:10:12.376Z,100921.83
2023-10-17T01:13:00.310Z,100924.33
2023-10-17T01:15:30.730Z,100926.16
2023-10-17T01:18:05.543Z,100926.11
2023-10-17T01:20:35.666Z,100924.69
2023-10-17T01:23:05.247Z,100926.90
2023-10-17T01:25:36.469Z,100929.66
2023-10-17T01:28:07.758Z,100925.88
2023-10-17T01:30:35.513Z,100924.98
2023-10-17T01:33:04.196Z,100926.73
2023-10-17T01:35:31.969Z,100927.66
2023-10-17T01:37:59.675Z,100930.12
2023-10-17T01:40:28.697Z,100931.54
2023-10-17T01:43:01.461Z,100930.48
2023-10-17T01:45:31.433Z,100931.73
2023-10-17T01:48:00.220Z,100931.95
2023-10-17T01:50:29.308Z,100937.80
2023-10-17T01:53:01.726Z,100938.38
2023-10-17T01:55:29.901Z,100935.05
2023-10-17T01:58:01.384Z,100939.20
2023-10-17T02:00:31.682Z,100937.33
2023-10-17T02:03:00.099Z,100936.13
2023-10-17T02:05:28.383Z,100941.17
2023-10-17T02:07:56.564Z,100942.31
2023-10-17T02:10:26.234Z,100948.66
2023-10-17T02:12:54.160Z,100949.60
2023-10-17T02:15:23.947Z,100945.25
2023-10-17T02:17:53.289Z,100946.50
2023-10-17T02:20:22.558Z,100948.83
2023-10-17T02:22:53.195Z,100947.73
2023-10-17T02:25:23.016Z,100950.44
2023-10-17T02:27:50.823Z,100955.32
2023-10-17T02:30:18.579Z,100952.27
2023-10-17T02:32:53.281Z,100954.44
2023-10-17T02:35:29.482Z,100951.14
2023-10-17T02:38:00.494Z,100955.10
2023-10-17T02:40:28.908Z,100954.89
2023-10-17T02:42:56.957Z,100959.06
2023-10-17T02:45:27.712Z,100959.74
2023-10-17T02:48:20.198Z,100962.86
2023-10-17T02:50:59.838Z,100964.08
2023-10-17T02:53:32.873Z,100964.59
2023-10-17T02:56:19.750Z,100962.52
2023-10-17T02:59:08.421Z,100963.30
2023-10-17T03:01:40.909Z,100963.44
2023-10-17T03:04:10.993Z,100966.71
2023-10-17T03:06:40.566Z,100967.25
2023-10-17T03:09:25.010Z,100963.01
2023-10-17T03:12:08.961Z,100963.42
2023-10-17T03:15:02.997Z,100967.27
2023-10-17T03:17:30.896Z,100965.06
2023-10-17T03:19:58.895Z,100964.47
2023-10-17T03:22:28.513Z,100969.70
2023-10-17T03:25:03.717Z,100971.39
2023-10-17T03:27:38.718Z,100970.38
2023-10-17T03:30:12.008Z,100968.29
2023-10-17T03:33:05.694Z,100962.52
2023-10-17T03:35:52.319Z,100959.70
2023-10-17T03:38:24.250Z,100960.84
2023-10-17T03:40:55.045Z,100964.09
2023-10-17T03:43:23.413Z,100962.85
2023-10-17T03:45:54.165Z,100964.47
2023-10-17T03:48:22.365Z,100968.15
2023-10-17T03:51:00.626Z,100970.61
2023-10-17T03:53:31.687Z,100968.19
2023-10-17T03:56:03.001Z,100969.45
2023-10-17T03:58:32.179Z,100969.25
2023-10-17T04:01:02.210Z,100966.86
2023-10-17T04:03:32.720Z,100965.66
2023-10-17T04:06:08.098Z,100969.05
2023-10-17T04:08:42.790Z,100968.21
2023-10-17T04:11:19.292Z,100968.86
2023-10-17T04:13:50.891Z,100970.21
2023-10-17T04:16:35.524Z,100967.15
2023-10-17T04:19:09.599Z,100970.31
2023-10-17T04:21:39.212Z,100976.22
2023-10-17T04:24:08.130Z,100980.80
2023-10-17T04:26:36.809Z,100982.52
2023-10-17T04:29:18.981Z,100981.80
2023-10-17T04:31:48.770Z,100980.52
2023-10-17T04:34:16.634Z,100988.92
2023-10-17T04:36:45.030Z,100985.69
2023-10-17T04:39:12.861Z,100985.38
2023-10-17T04:41:52.811Z,100989.94
2023-10-17T04:45:02.048Z,100989.33
2023-10-17T04:47:30.786Z,100993.02
2023-10-17T04:49:58.478Z,100993.85
2023-10-17T04:52:42.072Z,100991.42
2023-10-17T04:55:20.197Z,100997.14
2023-10-17T04:57:54.396Z,100998.09
2023-10-17T05:00:49.229Z,101002.52
2023-10-17T05:03:25.963Z,101000.44
2023-10-17T05:06:12.334Z,101004.33
2023-10-17T05:08:58.844Z,101007.26
2023-10-17T05:11:45.989Z,101005.92
2023-10-17T05:14:52.293Z,101008.55
2023-10-17T05:17:39.009Z,101007.84
2023-10-17T05:20:25.929Z,101008.84
2023-10-17T05:23:12.346Z,101011.65
2023-10-17T05:25:58.796Z,101018.21
2023-10-17T05:28:51.825Z,101025.30
2023-10-17T05:31:48.369Z,101033.79
2023-10-17T05:34:34.877Z,101039.00
2023-10-17T05:37:21.045Z,101038.02
2023-10-17T05:40:07.221Z,101037.42
2023-10-17T05:42:53.538Z,101038.32
2023-10-17T05:45:39.820Z,101047.38
2023-10-17T05:48:26.720Z,101045.95
2023-10-17T05:51:15.741Z,101048.06
2023-10-17T05:54:03.431Z,101045.67
2023-10-17T05:56:51.258Z,101048.11
2023-10-17T05:59:37.672Z,101044.39
2023-10-17T06:02:23.954Z,101047.56
2023-10-17T06:05:10.633Z,101053.55
2023-10-17T06:07:56.921Z,101061.65
2023-10-17T06:10:43.470Z,101058.91
2023-10-17T06:13:29.815Z,101059.44
2023-10-17T06:16:16.266Z,101059.27
2023-10-17T06:18:50.809Z,101063.13
2023-10-17T06:21:36.468Z,101062.88
2023-10-17T06:24:08.998Z,101062.99
2023-10-17T06:26:48.045Z,101061.48
2023-10-17T06:29:21.860Z,101060.48
2023-10-17T06:31:51.829Z,101064.71
2023-10-17T06:34:21.305Z,101064.18
2023-10-17T06:37:00.512Z,101068.30
2023-10-17T06:39:38.985Z,101073.47
2023-10-17T06:42:16.383Z,101076.14
2023-10-17T06:44:53.827Z,101081.52
2023-10-17T06:47:41.313Z,101082.33
2023-10-17T06:50:15.226Z,101090.01
2023-10-17T06:52:53.583Z,101094.27
2023-10-17T06:55:40.215Z,101094.83
2023-10-17T06:58:10.987Z,101094.57
2023-10-17T07:00:53.125Z,101092.46
2023-10-17T07:03:27.025Z,101095.42
2023-10-17T07:06:05.382Z,101096.83
2023-10-17T07:08:37.968Z,101095.60
2023-10-17T07:11:18.121Z,101094.44
2023-10-17T07:14:08.179Z,101093.39
2023-10-17T07:16:47.207Z,101090.98
2023-10-17T07:19:24.781Z,101089.09
2023-10-17T07:22:00.274Z,101087.98
2023-10-17T07:24:35.136Z,101090.95
2023-10-17T07:27:20.013Z,101089.68
2023-10-17T07:30:00.248Z,101088.24
2023-10-17T07:32:34.724Z,101084.60
2023-10-17T07:35:06.434Z,101078.93
2023-10-17T07:37:49.644Z,101082.73
2023-10-17T07:40:20.066Z,101088.93
2023-10-17T07:42:47.912Z,101091.08
2023-10-17T07:45:16.110Z,101095.98
2023-10-17T07:47:45.311Z,101095.34
2023-10-17T07:50:15.730Z,101099.16
2023-10-17T07:52:51.725Z,101098.41
2023-10-17T07:55:36.572Z,101098.16
2023-10-17T07:58:08.124Z,101096.70
2023-10-17T08:00:36.907Z,101095.74
2023-10-17T08:03:16.653Z,101099.73
2023-10-17T08:05:47.066Z,101100.00
2023-10-17T08:08:15.875Z,101103.06
2023-10-17T08:10:50.037Z,101103.02
2023-10-17T08:13:20.484Z,101105.55
2023-10-17T08:15:53.997Z,101105.67
2023-10-17T08:18:29.733Z,101107.77
2023-10-17T08:21:03.348Z,101109.15
2023-10-17T08:23:31.792Z,101102.75
2023-10-17T08:26:01.422Z,101102.75
2023-10-17T08:28:47.874Z,101108.56
2023-10-17T08:31:20.598Z,101105.94
2023-10-17T08:33:57.565Z,101106.21
2023-10-17T08:36:30.918Z,101104.59
2023-10-17T08:39:00.619Z,101106.33
2023-10-17T08:41:28.797Z,101102.30
2023-10-17T08:43:56.542Z,101103.36
2023-10-17T08:46:24.337Z,101103.20
2023-10-17T08:48:57.838Z,101101.77
2023-10-17T08:51:29.268Z,101101.36
2023-10-17T08:53:58.160Z,101104.34
2023-10-17T08:56:30.090Z,101104.23
2023-10-17T08:59:04.888Z,101103.65
2023-10-17T09:01:33.102Z,101107.51
2023-10-17T09:04:04.988Z,101106.64
2023-10-17T09:06:38.714Z,101104.65
2023-10-17T09:09:21.911Z,101108.75
2023-10-17T09:12:20.929Z,101103.39
2023-10-17T09:14:53.652Z,101103.06
2023-10-17T09:17:32.036Z,101106.00
2023-10-17T09:20:12.704Z,101103.61
2023-10-17T09:22:45.281Z,101101.04
2023-10-17T09:25:24.650Z,101104.70
2023-10-17T09:27:54.564Z,101106.59
2023-10-17T09:30:25.402Z,101104.16
2023-10-17T09:32:54.348Z,101103.83
2023-10-17T09:35:23.969Z,101105.19
2023-10-17T09:37:53.284Z,101105.29
2023-10-17T09:40:31.781Z,101105.86
2023-10-17T09:43:01.708Z,101109.75
2023-10-17T09:45:36.201Z,101107.45
2023-10-17T09:48:09.238Z,101107.22
2023-10-17T09:50:39.408Z,101107.34
2023-10-17T09:53:16.245Z,101110.66
2023-10-17T09:55:51.754Z,101104.84
2023-10-17T09:58:26.055Z,101105.23
2023-10-17T10:01:02.201Z,101100.27
2023-10-17T10:03:31.971Z,101100.93
2023-10-17T10:06:23.631Z,101098.11
2023-10-17T10:09:14.967Z,101094.16
2023-10-17T10:11:56.435Z,101095.95
2023-10-17T10:14:34.895Z,101094.11
2023-10-17T10:17:06.846Z,101088.97
2023-10-17T10:19:45.170Z,101089.27
2023-10-17T10:22:17.545Z,101084.80
2023-10-17T10:24:48.171Z,101087.36
2023-10-17T10:27:17.773Z,101081.41
2023-10-17T10:29:52.261Z,101082.02
2023-10-17T10:32:35.837Z,101079.46
2023-10-17T10:35:06.990Z,101077.38
2023-10-17T10:37:52.063Z,101076.08
2023-10-17T10:40:27.792Z,101070.42
2023-10-17T10:42:59.186Z,101071.09
2023-10-17T10:45:32.915Z,101068.30
2023-10-17T10:48:01.119Z,101068.27
2023-10-17T10:50:31.265Z,101063.05
2023-10-17T10:53:02.206Z,101059.77
2023-10-17T10:55:32.036Z,101060.83
2023-10-17T10:58:01.719Z,101056.23
2023-10-17T11:00:29.581Z,101054.34
2023-10-17T11:02:59.426Z,101053.75
2023-10-17T11:05:27.450Z,101052.41
2023-10-17T11:08:02.347Z,101048.70
2023-10-17T11:10:33.003Z,101048.29
2023-10-17T11:13:01.072Z,101046.84
2023-10-17T11:15:29.007Z,101043.16
2023-10-17T11:18:08.537Z,101042.80
2023-10-17T11:20:36.947Z,101037.02
2023-10-17T11:23:09.497Z,101034.85
2023-10-17T11:25:38.878Z,101026.55
2023-10-17T11:28:10.091Z,101029.05
2023-10-17T11:30:44.296Z,101019.03
2023-10-17T11:33:15.177Z,101020.52
2023-10-17T11:35:53.787Z,101027.15
2023-10-17T11:38:44.025Z,101028.36
2023-10-17T11:41:17.267Z,101024.55
2023-10-17T11:43:55.378Z,101025.71
2023-10-17T11:46:34.042Z,101028.27
2023-10-17T11:49:22.891Z,101025.52
2023-10-17T11:52:05.801Z,101026.66
2023-10-17T11:54:36.122Z,101019.90
2023-10-17T11:57:16.217Z,101015.49
2023-10-17T11:59:55.411Z,101008.04
2023-10-17T12:02:23.957Z,101006.81
2023-10-17T12:04:51.880Z,101005.89
2023-10-17T12:07:21.173Z,101005.74
2023-10-17T12:09:49.108Z,101004.64
2023-10-17T12:12:20.514Z,101005.16
2023-10-17T12:14:49.048Z,101001.99
2023-10-17T12:17:20.657Z,101001.40
2023-10-17T12:19:49.004Z,100995.86
2023-10-17T12:22:16.887Z,100995.40
2023-10-17T12:24:46.943Z,100994.08
2023-10-17T12:27:14.848Z,100989.64
2023-10-17T12:29:43.044Z,100990.83
2023-10-17T12:32:13.853Z,100990.65
2023-10-17T12:34:41.719Z,100989.48
2023-10-17T12:37:14.224Z,100981.83
2023-10-17T12:39:44.506Z,100979.55
2023-10-17T12:42:13.020Z,100976.77
2023-10-17T12:44:41.394Z,100969.99
2023-10-17T12:47:09.379Z,100968.39
2023-10-17T12:49:39.268Z,100966.91
2023-10-17T12:52:07.088Z,100962.08
2023-10-17T12:54:35.170Z,100959.89
2023-10-17T12:57:08.147Z,100953.42
2023-10-17T12:59:38.953Z,100949.24
2023-10-17T13:02:06.683Z,100946.75
2023-10-17T13:04:34.587Z,100946.29
2023-10-17T13:07:03.227Z,100948.04
2023-10-17T13:09:35.192Z,100948.76
2023-10-17T13:12:03.712Z,100943.77
2023-10-17T13:14:31.762Z,100947.38
2023-10-17T13:16:59.610Z,100947.05
2023-10-17T13:19:30.433Z,100947.73
2023-10-17T13:21:58.171Z,100953.17
2023-10-17T13:24:28.282Z,100946.65
2023-10-17T13:27:02.805Z,100946.13
2023-10-17T13:29:38.010Z,100944.23
2023-10-17T13:32:08.613Z,100946.06
2023-10-17T13:34:39.555Z,100939.69
2023-10-17T13:37:08.697Z,100937.91
2023-10-17T13:39:38.494Z,100936.94
2023-10-17T13:42:06.682Z,100936.99
2023-10-17T13:44:35.529Z,100933.68
2023-10-17T13:47:03.423Z,100930.91
2023-10-17T13:49:31.832Z,100935.45
2023-10-17T13:52:00.363Z,100930.09
2023-10-17T13:54:36.183Z,100933.13
2023-10-17T13:57:11.270Z,100932.13
2023-10-17T13:59:48.575Z,100927.70
2023-10-17T14:02:20.064Z,100924.27
2023-10-17T14:04:48.958Z,100919.97
2023-10-17T14:07:19.698Z,100917.26
2023-10-17T14:09:47.691Z,100917.60
2023-10-17T14:12:15.613Z,100913.79
2023-10-17T14:14:43.475Z,100907.09
2023-10-17T14:17:11.459Z,100908.26
2023-10-17T14:19:46.162Z,100909.58
2023-10-17T14:22:14.257Z,100909.33
2023-10-17T14:24:51.861Z,100910.80
2023-10-17T14:27:22.248Z,100908.77
2023-10-17T14:29:54.289Z,100909.54
2023-10-17T14:32:23.530Z,100911.85
2023-10-17T14:34:52.512Z,100911.27
2023-10-17T14:37:21.457Z,100906.45
2023-10-17T14:39:49.544Z,100903.15
2023-10-17T14:42:19.160Z,100902.90
2023-10-17T14:44:51.063Z,100903.52
2023-10-17T14:47:19.481Z,100904.48
2023-10-17T14:49:49.684Z,100901.20
2023-10-17T14:52:22.190Z,100898.95
2023-10-17T14:54:51.861Z,100897.00
2023-10-17T14:57:20.319Z,100893.05
2023-10-17T14:59:48.023Z,100892.28
2023-10-17T15:02:16.267Z,100891.20
2023-10-17T15:04:44.349Z,100891.14
2023-10-17T15:07:13.479Z,100885.31
2023-10-17T15:09:41.658Z,100885.27
2023-10-17T15:12:10.499Z,100887.27
2023-10-17T15:14:38.464Z,100883.63
2023-10-17T15:17:06.472Z,100885.24
2023-10-17T15:19:34.563Z,100884.14
2023-10-17T15:22:02.655Z,100886.77
2023-10-17T15:24:31.069Z,100888.23
2023-10-17T15:27:00.066Z,100887.11
2023-10-17T15:29:28.699Z,100883.16
2023-10-17T15:31:57.386Z,100879.42
2023-10-17T15:34:25.132Z,100875.73
2023-10-17T15:36:53.618Z,100874.04
2023-10-17T15:39:29.025Z,100878.95
2023-10-17T15:41:57.026Z,100876.71
2023-10-17T15:44:25.648Z,100879.45
2023-10-17T15:46:54.807Z,100884.41
2023-10-17T15:49:23.170Z,100884.86
2023-10-17T15:51:51.012Z,100888.03
2023-10-17T15:54:18.834Z,100884.55
2023-10-17T15:56:46.597Z,100885.65
2023-10-17T15:59:14.903Z,100886.95
2023-10-17T16:01:43.375Z,100894.07
2023-10-17T16:04:12.429Z,100896.14
2023-10-17T16:06:40.296Z,100897.54
2023-10-17T16:09:10.433Z,100896.40
2023-10-17T16:11:38.358Z,100898.02
2023-10-17T16:14:06.607Z,100900.15
2023-10-17T16:16:36.292Z,100903.65
2023-10-17T16:19:05.204Z,100906.80
2023-10-17T16:21:33.283Z,100907.34
2023-10-17T16:24:01.110Z,100905.86
2023-10-17T16:26:28.871Z,100903.52
2023-10-17T16:28:58.645Z,100906.97
2023-10-17T16:31:26.922Z,100910.27
2023-10-17T16:33:55.485Z,100916.14
2023-10-17T16:36:23.306Z,100917.95
2023-10-17T16:38:51.025Z,100913.15
2023-10-17T16:41:19.119Z,100916.01
2023-10-17T16:43:46.844Z,100916.00
2023-10-17T16:46:14.975Z,100919.49
2023-10-17T16:48:43.062Z,100918.75
2023-10-17T16:51:11.344Z,100917.14
2023-10-17T16:53:39.938Z,100920.29
2023-10-17T16:56:08.042Z,100924.23
2023-10-17T16:58:39.328Z,100927.20
2023-10-17T17:01:08.350Z,100927.45
2023-10-17T17:03:37.650Z,100925.27
2023-10-17T17:06:07.175Z,100923.36
2023-10-17T17:08:35.848Z,100927.58
2023-10-17T17:11:07.607Z,100919.44
2023-10-17T17:13:35.997Z,100920.63
2023-10-17T17:16:04.279Z,100919.03
2023-10-17T17:21:08.732Z,100919.85
2023-10-17T17:23:36.399Z,100917.90
2023-10-17T17:26:09.292Z,100916.55
2023-10-17T17:28:37.259Z,100914.87
2023-10-17T17:31:07.076Z,100913.31
2023-10-17T17:33:35.058Z,100907.84
2023-10-17T17:36:05.162Z,100906.34
2023-10-17T17:38:34.642Z,100903.01
2023-10-17T17:41:02.734Z,100904.34
2023-10-17T17:43:32.166Z,100909.45
2023-10-17T17:45:59.989Z,100908.76
2023-10-17T17:48:28.021Z,100906.66
2023-10-17T17:50:57.680Z,100909.54
2023-10-17T17:53:26.868Z,100911.21
2023-10-17T17:55:54.532Z,100915.05
2023-10-17T17:58:22.192Z,100912.85
2023-10-17T18:00:53.382Z,100912.50
2023-10-17T18:03:21.302Z,100912.91
2023-10-17T18:05:49.244Z,100907.11
2023-10-17T18:08:17.966Z,100906.20
2023-10-17T18:10:46.741Z,100901.59
2023-10-17T18:13:14.436Z,100898.30
2023-10-17T18:15:42.172Z,100896.98
2023-10-17T18:18:11.782Z,100898.29
2023-10-17T18:20:39.567Z,100894.86
2023-10-17T18:23:07.440Z,100893.98
2023-10-17T18:25:38.757Z,100896.40
2023-10-17T18:28:06.486Z,100899.04
2023-10-17T18:30:34.166Z,100896.04
2023-10-17T18:33:01.942Z,100893.79
2023-10-17T18:35:29.899Z,100897.56
2023-10-17T18:37:58.035Z,100895.60
2023-10-17T18:40:25.835Z,100894.00
2023-10-17T18:42:54.906Z,100895.77
2023-10-17T18:45:22.708Z,100896.63
2023-10-17T18:47:51.157Z,100898.15
2023-10-17T18:50:18.896Z,100897.19
2023-10-17T18:52:46.666Z,100896.35
2023-10-17T18:55:14.565Z,100895.41
2023-10-17T18:57:43.291Z,100893.55
2023-10-17T19:00:21.016Z,100889.68
2023-10-17T19:02:50.482Z,100885.50
2023-10-17T19:05:18.541Z,100883.52
2023-10-17T19:07:49.415Z,100882.34
2023-10-17T19:10:19.310Z,100881.48
2023-10-17T19:12:52.940Z,100879.73
2023-10-17T19:15:22.825Z,100880.56
2023-10-17T19:17:53.022Z,100885.16
2023-10-17T19:20:22.077Z,100879.82
2023-10-17T19:22:50.143Z,100876.41
2023-10-17T19:25:18.047Z,100870.86
2023-10-17T19:27:46.238Z,100873.64
2023-10-17T19:30:14.637Z,100869.39
2023-10-17T19:32:42.657Z,100867.02
2023-10-17T19:35:12.418Z,100864.86
2023-10-17T19:37:40.549Z,100865.91
2023-10-17T19:40:10.092Z,100862.27
2023-10-17T19:42:38.069Z,100858.19
2023-10-17T19:45:07.035Z,100857.74
2023-10-17T19:47:36.253Z,100854.48
2023-10-17T19:50:05.526Z,100854.79
2023-10-17T19:52:35.173Z,100853.39
2023-10-17T19:55:03.780Z,100853.25
2023-10-17T19:57:31.530Z,100847.05
2023-10-17T19:59:59.352Z,100849.04
2023-10-17T20:02:29.893Z,100847.09
2023-10-17T20:04:58.072Z,100848.20
2023-10-17T20:07:25.818Z,100844.23
2023-10-17T20:09:53.734Z,100848.63
2023-10-17T20:12:21.511Z,100847.14
2023-10-17T20:14:49.257Z,100847.61
2023-10-17T20:17:17.258Z,100844.02
2023-10-17T20:19:45.011Z,100843.11
2023-10-17T20:22:12.696Z,100847.15
2023-10-17T20:24:40.487Z,100848.08
2023-10-17T20:27:08.587Z,100846.38
2023-10-17T20:29:36.504Z,100842.03
2023-10-17T20:32:07.789Z,100841.02
2023-10-17T20:34:35.609Z,100841.88
2023-10-17T20:37:05.170Z,100842.40
2023-10-17T20:39:36.853Z,100842.04
2023-10-17T20:42:04.890Z,100844.58
2023-10-17T20:44:32.705Z,100841.17
2023-10-17T20:47:00.621Z,100843.41
2023-10-17T20:49:28.933Z,100842.80
2023-10-17T20:51:57.168Z,100835.81
2023-10-17T20:54:25.417Z,100833.71
2023-10-17T20:56:53.340Z,100833.19
2023-10-17T20:59:21.625Z,100834.86
2023-10-17T21:01:49.375Z,100833.05
2023-10-17T21:04:19.089Z,100828.26
2023-10-17T21:06:47.370Z,100830.94
2023-10-17T21:09:16.010Z,100830.19
2023-10-17T21:11:45.481Z,100831.48
2023-10-17T21:14:16.112Z,100831.25
2023-10-17T21:16:44.498Z,100830.06
2023-10-17T21:19:12.414Z,100822.41
2023-10-17T21:21:40.485Z,100819.39
2023-10-17T21:24:10.411Z,100822.05
2023-10-17T21:26:40.668Z,100819.00
2023-10-17T21:29:10.932Z,100811.10
2023-10-17T21:31:39.481Z,100806.41
2023-10-17T21:34:09.397Z,100804.34
2023-10-17T21:36:37.269Z,100805.20
2023-10-17T21:39:07.837Z,100809.60
2023-10-17T21:41:35.657Z,100809.73
2023-10-17T21:44:03.412Z,100809.36
2023-10-17T21:46:31.396Z,100813.99
2023-10-17T21:48:59.239Z,100821.36
2023-10-17T21:51:27.126Z,100822.63
2023-10-17T21:53:55.347Z,100821.04
2023-10-17T21:56:23.036Z,100820.61
2023-10-17T21:58:51.136Z,100821.54
2023-10-17T22:01:23.262Z,100820.91
2023-10-17T22:03:51.518Z,100819.48
2023-10-17T22:06:21.569Z,100811.41
2023-10-17T22:08:49.884Z,100807.20
2023-10-17T22:11:17.841Z,100805.74
2023-10-17T22:13:52.940Z,100804.27
2023-10-17T22:16:21.947Z,100808.55
2023-10-17T22:18:50.348Z,100801.59
2023-10-17T22:21:21.622Z,100797.73
2023-10-17T22:23:49.901Z,100796.34
2023-10-17T22:26:17.766Z,100795.34
2023-10-17T22:28:47.151Z,100792.79
2023-10-17T22:31:15.322Z,100793.81
2023-10-17T22:33:43.260Z,100794.29
2023-10-17T22:36:13.041Z,100798.17
2023-10-17T22:38:42.049Z,100796.66
2023-10-17T22:41:11.349Z,100790.49
2023-10-17T22:43:39.216Z,100785.28
2023-10-17T22:46:09.423Z,100782.42
2023-10-17T22:48:38.498Z,100784.70
2023-10-17T22:51:06.574Z,100783.67
2023-10-17T22:53:35.072Z,100776.80
2023-10-17T22:56:04.293Z,100780.12
2023-10-17T22:58:32.732Z,100785.69
2023-10-17T23:01:00.529Z,100783.71
2023-10-17T23:03:28.418Z,100786.73
2023-10-17T23:05:56.700Z,100784.83
2023-10-17T23:08:25.666Z,100790.77
2023-10-17T23:10:53.632Z,100788.16
2023-10-17T23:13:21.283Z,100786.13
2023-10-17T23:15:49.000Z,100781.06
2023-10-17T23:18:16.822Z,100779.34
2023-10-17T23:20:45.569Z,100773.21
2023-10-17T23:23:14.364Z,100772.37
2023-10-17T23:25:42.643Z,100771.75
2023-10-17T23:28:12.411Z,100777.30
2023-10-17T23:30:41.507Z,100773.33
2023-10-17T23:33:10.095Z,100772.19
2023-10-17T23:35:38.513Z,100771.59
2023-10-17T23:38:06.536Z,100770.73
2023-10-17T23:40:34.228Z,100768.27
2023-10-17T23:43:02.225Z,100762.30
2023-10-17T23:45:29.970Z,100762.59
2023-10-17T23:47:59.143Z,100758.33
2023-10-17T23:50:27.069Z,100760.05
2023-10-17T23:52:54.883Z,100760.02
2023-10-17T23:55:23.315Z,100754.48
2023-10-17T23:57:51.908Z,100751.77
